sensor_id;sensor_type;location;lat;lon;timestamp;P1;durP1;ratioP1;P2;durP2;ratioP2
15194;SDS011;7698;42.478;23.756;2022-09-09T00:00:46;53.70;;;49.80;;
15194;SDS011;7698;42.478;23.756;2022-09-09T00:03:14;56.50;;;52.25;;
15194;SDS011;7698;42.478;23.756;2022-09-09T00:05:44;53.08;;;48.75;;
15194;SDS011;7698;42.478;23.756;2022-09-09T00:08:15;46.25;;;42.85;;
15194;SDS011;7698;42.478;23.756;2022-09-09T00:10:45;43.03;;;39.47;;
15194;SDS011;7698;42.478;23.756;2022-09-09T00:13:16;45.13;;;41.65;;
15194;SDS011;7698;42.478;23.756;2022-09-09T00:15:46;43.72;;;40.22;;
15194;SDS011;7698;42.478;23.756;2022-09-09T00:18:17;42.55;;;39.38;;
15194;SDS011;7698;42.478;23.756;2022-09-09T00:20:48;41.83;;;38.67;;
15194;SDS011;7698;42.478;23.756;2022-09-09T00:23:19;41.85;;;38.83;;
15194;SDS011;7698;42.478;23.756;2022-09-09T00:25:53;44.25;;;40.65;;
15194;SDS011;7698;42.478;23.756;2022-09-09T00:28:22;42.28;;;39.15;;
15194;SDS011;7698;42.478;23.756;2022-09-09T00:30:48;41.38;;;38.22;;
15194;SDS011;7698;42.478;23.756;2022-09-09T00:33:16;45.70;;;42.40;;
15194;SDS011;7698;42.478;23.756;2022-09-09T00:35:44;43.13;;;40.03;;
15194;SDS011;7698;42.478;23.756;2022-09-09T00:38:12;42.20;;;39.15;;
15194;SDS011;7698;42.478;23.756;2022-09-09T00:40:44;40.78;;;37.78;;
15194;SDS011;7698;42.478;23.756;2022-09-09T00:43:22;39.03;;;36.03;;
15194;SDS011;7698;42.478;23.756;2022-09-09T00:46:00;41.00;;;37.95;;
15194;SDS011;7698;42.478;23.756;2022-09-09T00:48:33;37.35;;;34.63;;
15194;SDS011;7698;42.478;23.756;2022-09-09T00:51:05;37.53;;;34.60;;
15194;SDS011;7698;42.478;23.756;2022-09-09T00:53:37;36.42;;;33.70;;
15194;SDS011;7698;42.478;23.756;2022-09-09T00:56:11;34.08;;;31.48;;
15194;SDS011;7698;42.478;23.756;2022-09-09T00:58:38;34.72;;;32.13;;
15194;SDS011;7698;42.478;23.756;2022-09-09T01:01:05;37.58;;;34.67;;
15194;SDS011;7698;42.478;23.756;2022-09-09T01:03:35;35.60;;;32.80;;
15194;SDS011;7698;42.478;23.756;2022-09-09T01:06:11;33.13;;;30.52;;
15194;SDS011;7698;42.478;23.756;2022-09-09T01:08:42;35.63;;;32.80;;
15194;SDS011;7698;42.478;23.756;2022-09-09T01:11:12;35.42;;;32.88;;
15194;SDS011;7698;42.478;23.756;2022-09-09T01:13:42;35.67;;;32.97;;
15194;SDS011;7698;42.478;23.756;2022-09-09T01:16:11;37.20;;;33.88;;
15194;SDS011;7698;42.478;23.756;2022-09-09T01:18:39;37.40;;;34.20;;
15194;SDS011;7698;42.478;23.756;2022-09-09T01:21:08;38.60;;;35.70;;
15194;SDS011;7698;42.478;23.756;2022-09-09T01:23:56;37.10;;;34.30;;
15194;SDS011;7698;42.478;23.756;2022-09-09T01:26:29;38.55;;;35.55;;
15194;SDS011;7698;42.478;23.756;2022-09-09T01:28:56;39.42;;;36.20;;
15194;SDS011;7698;42.478;23.756;2022-09-09T01:31:23;42.30;;;38.80;;
15194;SDS011;7698;42.478;23.756;2022-09-09T01:33:52;41.20;;;37.78;;
15194;SDS011;7698;42.478;23.756;2022-09-09T01:36:21;41.75;;;38.33;;
15194;SDS011;7698;42.478;23.756;2022-09-09T01:38:50;39.95;;;36.75;;
15194;SDS011;7698;42.478;23.756;2022-09-09T01:41:17;41.25;;;38.05;;
15194;SDS011;7698;42.478;23.756;2022-09-09T01:43:45;42.95;;;39.33;;
15194;SDS011;7698;42.478;23.756;2022-09-09T01:46:12;37.55;;;34.67;;
15194;SDS011;7698;42.478;23.756;2022-09-09T01:48:38;34.78;;;31.83;;
15194;SDS011;7698;42.478;23.756;2022-09-09T01:51:05;30.88;;;28.55;;
15194;SDS011;7698;42.478;23.756;2022-09-09T01:53:33;33.55;;;30.90;;
15194;SDS011;7698;42.478;23.756;2022-09-09T01:56:02;29.15;;;26.70;;
15194;SDS011;7698;42.478;23.756;2022-09-09T01:58:32;27.63;;;25.45;;
15194;SDS011;7698;42.478;23.756;2022-09-09T02:01:02;25.48;;;23.48;;
15194;SDS011;7698;42.478;23.756;2022-09-09T02:03:31;25.92;;;23.73;;
15194;SDS011;7698;42.478;23.756;2022-09-09T02:06:01;24.45;;;22.52;;
15194;SDS011;7698;42.478;23.756;2022-09-09T02:08:33;24.58;;;22.58;;
15194;SDS011;7698;42.478;23.756;2022-09-09T02:11:04;23.00;;;21.17;;
15194;SDS011;7698;42.478;23.756;2022-09-09T02:13:32;19.60;;;18.00;;
15194;SDS011;7698;42.478;23.756;2022-09-09T02:16:03;18.45;;;17.00;;
15194;SDS011;7698;42.478;23.756;2022-09-09T02:18:32;18.40;;;17.00;;
15194;SDS011;7698;42.478;23.756;2022-09-09T02:21:01;18.52;;;17.20;;
15194;SDS011;7698;42.478;23.756;2022-09-09T02:23:28;20.05;;;18.52;;
15194;SDS011;7698;42.478;23.756;2022-09-09T02:25:56;21.38;;;19.67;;
15194;SDS011;7698;42.478;23.756;2022-09-09T02:28:24;19.58;;;17.92;;
15194;SDS011;7698;42.478;23.756;2022-09-09T02:30:52;18.20;;;16.35;;
15194;SDS011;7698;42.478;23.756;2022-09-09T02:33:21;17.13;;;15.73;;
15194;SDS011;7698;42.478;23.756;2022-09-09T02:35:49;20.13;;;18.42;;
15194;SDS011;7698;42.478;23.756;2022-09-09T02:38:16;20.35;;;18.50;;
15194;SDS011;7698;42.478;23.756;2022-09-09T02:40:43;20.42;;;18.83;;
15194;SDS011;7698;42.478;23.756;2022-09-09T02:43:10;18.48;;;17.17;;
15194;SDS011;7698;42.478;23.756;2022-09-09T02:45:40;17.30;;;16.02;;
15194;SDS011;7698;42.478;23.756;2022-09-09T02:48:09;17.15;;;15.75;;
15194;SDS011;7698;42.478;23.756;2022-09-09T02:50:39;15.65;;;14.45;;
15194;SDS011;7698;42.478;23.756;2022-09-09T02:53:10;19.10;;;17.50;;
15194;SDS011;7698;42.478;23.756;2022-09-09T02:55:41;31.83;;;29.40;;
15194;SDS011;7698;42.478;23.756;2022-09-09T02:58:10;39.17;;;36.28;;
15194;SDS011;7698;42.478;23.756;2022-09-09T03:00:38;55.63;;;51.03;;
15194;SDS011;7698;42.478;23.756;2022-09-09T03:03:05;75.40;;;69.65;;
15194;SDS011;7698;42.478;23.756;2022-09-09T03:05:31;88.95;;;81.95;;
15194;SDS011;7698;42.478;23.756;2022-09-09T03:07:59;62.28;;;57.63;;
15194;SDS011;7698;42.478;23.756;2022-09-09T03:10:26;76.20;;;69.65;;
15194;SDS011;7698;42.478;23.756;2022-09-09T03:12:52;91.07;;;83.82;;
15194;SDS011;7698;42.478;23.756;2022-09-09T03:15:19;77.93;;;71.68;;
15194;SDS011;7698;42.478;23.756;2022-09-09T03:17:45;48.78;;;44.78;;
15194;SDS011;7698;42.478;23.756;2022-09-09T03:20:12;46.85;;;43.25;;
15194;SDS011;7698;42.478;23.756;2022-09-09T03:22:38;50.10;;;46.20;;
15194;SDS011;7698;42.478;23.756;2022-09-09T03:25:07;43.28;;;39.75;;
15194;SDS011;7698;42.478;23.756;2022-09-09T03:27:33;37.30;;;34.40;;
15194;SDS011;7698;42.478;23.756;2022-09-09T03:30:00;31.65;;;29.27;;
15194;SDS011;7698;42.478;23.756;2022-09-09T03:32:28;26.52;;;24.63;;
15194;SDS011;7698;42.478;23.756;2022-09-09T03:34:56;28.15;;;26.05;;
15194;SDS011;7698;42.478;23.756;2022-09-09T03:37:22;27.38;;;25.27;;
15194;SDS011;7698;42.478;23.756;2022-09-09T03:39:49;25.60;;;23.70;;
15194;SDS011;7698;42.478;23.756;2022-09-09T03:42:17;23.40;;;21.45;;
15194;SDS011;7698;42.478;23.756;2022-09-09T03:44:44;25.45;;;23.55;;
15194;SDS011;7698;42.478;23.756;2022-09-09T03:47:15;23.60;;;21.80;;
15194;SDS011;7698;42.478;23.756;2022-09-09T03:49:41;23.63;;;21.85;;
15194;SDS011;7698;42.478;23.756;2022-09-09T03:52:08;24.02;;;22.23;;
15194;SDS011;7698;42.478;23.756;2022-09-09T03:54:34;24.77;;;22.88;;
15194;SDS011;7698;42.478;23.756;2022-09-09T03:57:01;28.33;;;26.02;;
15194;SDS011;7698;42.478;23.756;2022-09-09T03:59:29;32.75;;;29.75;;
15194;SDS011;7698;42.478;23.756;2022-09-09T04:01:55;33.75;;;30.85;;
15194;SDS011;7698;42.478;23.756;2022-09-09T04:04:22;27.75;;;25.45;;
15194;SDS011;7698;42.478;23.756;2022-09-09T04:06:49;28.25;;;25.75;;
15194;SDS011;7698;42.478;23.756;2022-09-09T04:09:16;31.58;;;28.98;;
15194;SDS011;7698;42.478;23.756;2022-09-09T04:11:42;28.50;;;26.23;;
15194;SDS011;7698;42.478;23.756;2022-09-09T04:14:09;30.00;;;27.50;;
15194;SDS011;7698;42.478;23.756;2022-09-09T04:16:36;34.95;;;32.08;;
15194;SDS011;7698;42.478;23.756;2022-09-09T04:19:03;33.20;;;30.38;;
15194;SDS011;7698;42.478;23.756;2022-09-09T04:21:31;36.17;;;32.70;;
15194;SDS011;7698;42.478;23.756;2022-09-09T04:23:58;37.63;;;34.67;;
15194;SDS011;7698;42.478;23.756;2022-09-09T04:26:24;39.38;;;36.25;;
15194;SDS011;7698;42.478;23.756;2022-09-09T04:28:51;38.88;;;35.95;;
15194;SDS011;7698;42.478;23.756;2022-09-09T04:31:18;44.97;;;41.35;;
15194;SDS011;7698;42.478;23.756;2022-09-09T04:33:47;42.78;;;39.55;;
15194;SDS011;7698;42.478;23.756;2022-09-09T04:36:14;44.67;;;41.15;;
15194;SDS011;7698;42.478;23.756;2022-09-09T04:38:41;44.15;;;40.67;;
15194;SDS011;7698;42.478;23.756;2022-09-09T04:41:09;44.65;;;40.92;;
15194;SDS011;7698;42.478;23.756;2022-09-09T04:43:36;42.13;;;38.65;;
15194;SDS011;7698;42.478;23.756;2022-09-09T04:46:03;42.50;;;39.08;;
15194;SDS011;7698;42.478;23.756;2022-09-09T04:48:30;42.50;;;38.95;;
15194;SDS011;7698;42.478;23.756;2022-09-09T04:50:59;36.35;;;33.15;;
15194;SDS011;7698;42.478;23.756;2022-09-09T04:53:26;38.47;;;35.25;;
15194;SDS011;7698;42.478;23.756;2022-09-09T04:55:53;39.00;;;35.90;;
15194;SDS011;7698;42.478;23.756;2022-09-09T04:58:19;30.83;;;28.63;;
15194;SDS011;7698;42.478;23.756;2022-09-09T05:00:47;29.85;;;27.50;;
15194;SDS011;7698;42.478;23.756;2022-09-09T05:03:14;31.45;;;29.15;;
15194;SDS011;7698;42.478;23.756;2022-09-09T05:05:40;29.33;;;26.92;;
15194;SDS011;7698;42.478;23.756;2022-09-09T05:08:08;27.88;;;25.48;;
15194;SDS011;7698;42.478;23.756;2022-09-09T05:10:36;24.58;;;22.67;;
15194;SDS011;7698;42.478;23.756;2022-09-09T05:13:03;20.73;;;19.27;;
15194;SDS011;7698;42.478;23.756;2022-09-09T05:15:30;20.63;;;19.13;;
15194;SDS011;7698;42.478;23.756;2022-09-09T05:17:57;18.70;;;17.02;;
15194;SDS011;7698;42.478;23.756;2022-09-09T05:20:24;17.15;;;15.38;;
15194;SDS011;7698;42.478;23.756;2022-09-09T05:22:52;13.40;;;12.35;;
15194;SDS011;7698;42.478;23.756;2022-09-09T05:25:20;12.68;;;11.57;;
15194;SDS011;7698;42.478;23.756;2022-09-09T05:27:47;12.48;;;11.52;;
15194;SDS011;7698;42.478;23.756;2022-09-09T05:30:14;14.10;;;13.10;;
15194;SDS011;7698;42.478;23.756;2022-09-09T05:32:41;13.45;;;12.35;;
15194;SDS011;7698;42.478;23.756;2022-09-09T05:35:08;13.48;;;12.35;;
15194;SDS011;7698;42.478;23.756;2022-09-09T05:37:35;18.13;;;16.92;;
15194;SDS011;7698;42.478;23.756;2022-09-09T05:40:01;15.25;;;14.15;;
15194;SDS011;7698;42.478;23.756;2022-09-09T05:42:31;11.57;;;10.68;;
15194;SDS011;7698;42.478;23.756;2022-09-09T05:44:58;10.63;;;9.90;;
15194;SDS011;7698;42.478;23.756;2022-09-09T05:47:24;10.60;;;9.73;;
15194;SDS011;7698;42.478;23.756;2022-09-09T05:49:52;11.90;;;10.73;;
15194;SDS011;7698;42.478;23.756;2022-09-09T05:52:19;10.13;;;9.30;;
15194;SDS011;7698;42.478;23.756;2022-09-09T05:54:45;9.20;;;8.50;;
15194;SDS011;7698;42.478;23.756;2022-09-09T05:57:12;9.60;;;8.43;;
15194;SDS011;7698;42.478;23.756;2022-09-09T05:59:40;8.27;;;7.63;;
15194;SDS011;7698;42.478;23.756;2022-09-09T06:02:07;8.43;;;7.72;;
15194;SDS011;7698;42.478;23.756;2022-09-09T06:04:34;8.18;;;7.57;;
15194;SDS011;7698;42.478;23.756;2022-09-09T06:07:00;8.73;;;8.02;;
15194;SDS011;7698;42.478;23.756;2022-09-09T06:09:27;9.25;;;8.38;;
15194;SDS011;7698;42.478;23.756;2022-09-09T06:11:55;9.30;;;8.50;;
15194;SDS011;7698;42.478;23.756;2022-09-09T06:14:22;9.55;;;7.20;;
15194;SDS011;7698;42.478;23.756;2022-09-09T06:16:53;8.23;;;7.43;;
15194;SDS011;7698;42.478;23.756;2022-09-09T06:19:20;16.05;;;14.57;;
15194;SDS011;7698;42.478;23.756;2022-09-09T06:21:46;11.27;;;8.85;;
15194;SDS011;7698;42.478;23.756;2022-09-09T06:24:14;7.63;;;7.03;;
15194;SDS011;7698;42.478;23.756;2022-09-09T06:26:42;7.15;;;5.95;;
15194;SDS011;7698;42.478;23.756;2022-09-09T06:29:09;6.30;;;5.75;;
15194;SDS011;7698;42.478;23.756;2022-09-09T06:31:36;6.43;;;5.88;;
15194;SDS011;7698;42.478;23.756;2022-09-09T06:34:05;8.65;;;5.63;;
15194;SDS011;7698;42.478;23.756;2022-09-09T06:36:34;6.55;;;5.93;;
15194;SDS011;7698;42.478;23.756;2022-09-09T06:39:00;6.20;;;5.70;;
15194;SDS011;7698;42.478;23.756;2022-09-09T06:41:28;9.15;;;6.65;;
15194;SDS011;7698;42.478;23.756;2022-09-09T06:43:55;6.10;;;5.47;;
15194;SDS011;7698;42.478;23.756;2022-09-09T06:46:22;5.38;;;4.88;;
15194;SDS011;7698;42.478;23.756;2022-09-09T06:48:49;7.15;;;6.50;;
15194;SDS011;7698;42.478;23.756;2022-09-09T06:51:17;6.85;;;6.25;;
15194;SDS011;7698;42.478;23.756;2022-09-09T06:53:44;6.00;;;5.40;;
15194;SDS011;7698;42.478;23.756;2022-09-09T06:56:17;6.20;;;5.60;;
15194;SDS011;7698;42.478;23.756;2022-09-09T06:58:44;6.28;;;5.57;;
15194;SDS011;7698;42.478;23.756;2022-09-09T07:01:11;6.10;;;5.50;;
15194;SDS011;7698;42.478;23.756;2022-09-09T07:03:38;5.90;;;4.30;;
15194;SDS011;7698;42.478;23.756;2022-09-09T07:06:05;4.85;;;4.45;;
15194;SDS011;7698;42.478;23.756;2022-09-09T07:08:33;5.72;;;5.20;;
15194;SDS011;7698;42.478;23.756;2022-09-09T07:11:01;6.72;;;5.38;;
15194;SDS011;7698;42.478;23.756;2022-09-09T07:13:29;6.47;;;5.88;;
15194;SDS011;7698;42.478;23.756;2022-09-09T07:16:02;5.82;;;5.18;;
15194;SDS011;7698;42.478;23.756;2022-09-09T07:18:29;6.10;;;4.82;;
15194;SDS011;7698;42.478;23.756;2022-09-09T07:20:55;5.93;;;5.32;;
15194;SDS011;7698;42.478;23.756;2022-09-09T07:23:22;6.07;;;5.18;;
15194;SDS011;7698;42.478;23.756;2022-09-09T07:25:50;4.95;;;4.47;;
15194;SDS011;7698;42.478;23.756;2022-09-09T07:28:18;6.22;;;4.35;;
15194;SDS011;7698;42.478;23.756;2022-09-09T07:30:52;4.80;;;4.40;;
15194;SDS011;7698;42.478;23.756;2022-09-09T07:33:19;4.95;;;4.45;;
15194;SDS011;7698;42.478;23.756;2022-09-09T07:35:46;5.38;;;4.35;;
15194;SDS011;7698;42.478;23.756;2022-09-09T07:38:12;6.10;;;3.67;;
15194;SDS011;7698;42.478;23.756;2022-09-09T07:40:40;6.30;;;3.30;;
15194;SDS011;7698;42.478;23.756;2022-09-09T07:43:07;3.88;;;3.58;;
15194;SDS011;7698;42.478;23.756;2022-09-09T07:45:34;4.25;;;3.90;;
15194;SDS011;7698;42.478;23.756;2022-09-09T07:48:01;4.65;;;4.30;;
15194;SDS011;7698;42.478;23.756;2022-09-09T07:50:28;5.40;;;3.75;;
15194;SDS011;7698;42.478;23.756;2022-09-09T07:52:54;3.80;;;3.38;;
15194;SDS011;7698;42.478;23.756;2022-09-09T07:55:21;4.32;;;4.03;;
15194;SDS011;7698;42.478;23.756;2022-09-09T07:57:50;3.92;;;3.63;;
15194;SDS011;7698;42.478;23.756;2022-09-09T08:00:18;4.10;;;3.70;;
15194;SDS011;7698;42.478;23.756;2022-09-09T08:02:47;6.10;;;3.60;;
15194;SDS011;7698;42.478;23.756;2022-09-09T08:05:13;3.88;;;3.58;;
15194;SDS011;7698;42.478;23.756;2022-09-09T08:07:40;7.65;;;6.65;;
15194;SDS011;7698;42.478;23.756;2022-09-09T08:10:07;7.10;;;3.50;;
15194;SDS011;7698;42.478;23.756;2022-09-09T08:12:34;5.80;;;3.50;;
15194;SDS011;7698;42.478;23.756;2022-09-09T08:15:01;3.50;;;3.20;;
15194;SDS011;7698;42.478;23.756;2022-09-09T08:17:29;3.35;;;3.05;;
15194;SDS011;7698;42.478;23.756;2022-09-09T08:19:55;3.63;;;3.33;;
15194;SDS011;7698;42.478;23.756;2022-09-09T08:22:22;4.75;;;3.47;;
15194;SDS011;7698;42.478;23.756;2022-09-09T08:24:49;3.70;;;3.40;;
15194;SDS011;7698;42.478;23.756;2022-09-09T08:27:16;4.90;;;4.00;;
15194;SDS011;7698;42.478;23.756;2022-09-09T08:29:42;4.60;;;3.50;;
15194;SDS011;7698;42.478;23.756;2022-09-09T08:32:09;3.60;;;3.38;;
15194;SDS011;7698;42.478;23.756;2022-09-09T08:34:37;5.65;;;3.47;;
15194;SDS011;7698;42.478;23.756;2022-09-09T08:37:04;3.88;;;3.33;;
15194;SDS011;7698;42.478;23.756;2022-09-09T08:39:31;4.10;;;3.75;;
15194;SDS011;7698;42.478;23.756;2022-09-09T08:42:02;3.70;;;3.40;;
15194;SDS011;7698;42.478;23.756;2022-09-09T08:44:37;3.70;;;3.08;;
15194;SDS011;7698;42.478;23.756;2022-09-09T08:47:09;3.67;;;3.40;;
15194;SDS011;7698;42.478;23.756;2022-09-09T08:49:46;3.83;;;3.47;;
15194;SDS011;7698;42.478;23.756;2022-09-09T08:52:25;5.38;;;3.92;;
15194;SDS011;7698;42.478;23.756;2022-09-09T08:54:53;4.38;;;3.40;;
15194;SDS011;7698;42.478;23.756;2022-09-09T08:57:23;3.78;;;3.47;;
15194;SDS011;7698;42.478;23.756;2022-09-09T08:59:52;6.10;;;3.63;;
15194;SDS011;7698;42.478;23.756;2022-09-09T09:02:21;3.75;;;3.38;;
15194;SDS011;7698;42.478;23.756;2022-09-09T09:05:01;4.18;;;3.47;;
15194;SDS011;7698;42.478;23.756;2022-09-09T09:07:34;4.13;;;3.78;;
15194;SDS011;7698;42.478;23.756;2022-09-09T09:10:04;4.43;;;4.07;;
15194;SDS011;7698;42.478;23.756;2022-09-09T09:12:38;3.88;;;3.58;;
15194;SDS011;7698;42.478;23.756;2022-09-09T09:15:08;4.93;;;3.80;;
15194;SDS011;7698;42.478;23.756;2022-09-09T09:17:37;3.88;;;3.05;;
15194;SDS011;7698;42.478;23.756;2022-09-09T09:20:11;3.47;;;3.15;;
15194;SDS011;7698;42.478;23.756;2022-09-09T09:22:40;4.15;;;3.17;;
15194;SDS011;7698;42.478;23.756;2022-09-09T09:25:11;3.88;;;3.50;;
15194;SDS011;7698;42.478;23.756;2022-09-09T09:27:43;6.22;;;3.35;;
15194;SDS011;7698;42.478;23.756;2022-09-09T09:30:13;5.28;;;4.88;;
15194;SDS011;7698;42.478;23.756;2022-09-09T09:32:41;3.92;;;3.60;;
15194;SDS011;7698;42.478;23.756;2022-09-09T09:35:11;5.25;;;3.42;;
15194;SDS011;7698;42.478;23.756;2022-09-09T09:37:39;4.00;;;3.60;;
15194;SDS011;7698;42.478;23.756;2022-09-09T09:40:09;3.95;;;3.33;;
15194;SDS011;7698;42.478;23.756;2022-09-09T09:42:36;4.20;;;3.80;;
15194;SDS011;7698;42.478;23.756;2022-09-09T09:45:14;7.53;;;3.67;;
15194;SDS011;7698;42.478;23.756;2022-09-09T09:47:43;3.90;;;3.45;;
15194;SDS011;7698;42.478;23.756;2022-09-09T09:50:17;5.55;;;3.58;;
15194;SDS011;7698;42.478;23.756;2022-09-09T09:52:52;3.78;;;3.47;;
15194;SDS011;7698;42.478;23.756;2022-09-09T09:55:20;3.92;;;3.53;;
15194;SDS011;7698;42.478;23.756;2022-09-09T09:57:47;3.83;;;3.47;;
15194;SDS011;7698;42.478;23.756;2022-09-09T10:00:15;5.97;;;3.58;;
15194;SDS011;7698;42.478;23.756;2022-09-09T10:02:42;3.80;;;3.35;;
15194;SDS011;7698;42.478;23.756;2022-09-09T10:05:13;4.05;;;3.67;;
15194;SDS011;7698;42.478;23.756;2022-09-09T10:07:41;3.65;;;3.35;;
15194;SDS011;7698;42.478;23.756;2022-09-09T10:10:12;3.95;;;3.65;;
15194;SDS011;7698;42.478;23.756;2022-09-09T10:12:43;5.72;;;3.53;;
15194;SDS011;7698;42.478;23.756;2022-09-09T10:15:27;11.43;;;10.25;;
15194;SDS011;7698;42.478;23.756;2022-09-09T10:17:57;5.13;;;4.72;;
15194;SDS011;7698;42.478;23.756;2022-09-09T10:20:32;4.82;;;3.58;;
15194;SDS011;7698;42.478;23.756;2022-09-09T10:23:04;4.35;;;3.47;;
15194;SDS011;7698;42.478;23.756;2022-09-09T10:25:37;3.35;;;3.15;;
15194;SDS011;7698;42.478;23.756;2022-09-09T10:28:17;4.82;;;3.53;;
15194;SDS011;7698;42.478;23.756;2022-09-09T10:30:54;7.28;;;3.22;;
15194;SDS011;7698;42.478;23.756;2022-09-09T10:33:24;3.78;;;2.88;;
15194;SDS011;7698;42.478;23.756;2022-09-09T10:35:55;5.53;;;4.28;;
15194;SDS011;7698;42.478;23.756;2022-09-09T10:38:27;6.13;;;5.53;;
15194;SDS011;7698;42.478;23.756;2022-09-09T10:41:01;3.90;;;3.50;;
15194;SDS011;7698;42.478;23.756;2022-09-09T10:43:39;6.63;;;6.13;;
15194;SDS011;7698;42.478;23.756;2022-09-09T10:46:18;5.57;;;3.92;;
15194;SDS011;7698;42.478;23.756;2022-09-09T10:48:52;3.70;;;3.40;;
15194;SDS011;7698;42.478;23.756;2022-09-09T10:51:28;5.43;;;3.85;;
15194;SDS011;7698;42.478;23.756;2022-09-09T10:54:05;3.70;;;3.40;;
15194;SDS011;7698;42.478;23.756;2022-09-09T10:56:36;12.10;;;10.93;;
15194;SDS011;7698;42.478;23.756;2022-09-09T10:59:05;9.02;;;5.35;;
15194;SDS011;7698;42.478;23.756;2022-09-09T11:01:33;6.13;;;5.15;;
15194;SDS011;7698;42.478;23.756;2022-09-09T11:04:03;7.63;;;4.20;;
15194;SDS011;7698;42.478;23.756;2022-09-09T11:06:34;4.15;;;3.70;;
15194;SDS011;7698;42.478;23.756;2022-09-09T11:09:04;4.63;;;3.50;;
15194;SDS011;7698;42.478;23.756;2022-09-09T11:11:33;5.45;;;3.83;;
15194;SDS011;7698;42.478;23.756;2022-09-09T11:14:03;8.40;;;3.80;;
15194;SDS011;7698;42.478;23.756;2022-09-09T11:16:32;5.95;;;3.97;;
15194;SDS011;7698;42.478;23.756;2022-09-09T11:19:01;3.72;;;3.38;;
15194;SDS011;7698;42.478;23.756;2022-09-09T11:21:28;4.13;;;3.72;;
15194;SDS011;7698;42.478;23.756;2022-09-09T11:23:57;3.50;;;3.20;;
15194;SDS011;7698;42.478;23.756;2022-09-09T11:26:30;4.70;;;3.33;;
15194;SDS011;7698;42.478;23.756;2022-09-09T11:29:06;3.80;;;3.40;;
15194;SDS011;7698;42.478;23.756;2022-09-09T11:31:43;5.35;;;3.38;;
15194;SDS011;7698;42.478;23.756;2022-09-09T11:34:14;4.15;;;3.63;;
15194;SDS011;7698;42.478;23.756;2022-09-09T11:36:50;6.07;;;3.65;;
15194;SDS011;7698;42.478;23.756;2022-09-09T11:39:27;3.35;;;3.08;;
15194;SDS011;7698;42.478;23.756;2022-09-09T11:42:06;4.25;;;3.95;;
15194;SDS011;7698;42.478;23.756;2022-09-09T11:44:33;5.15;;;3.83;;
15194;SDS011;7698;42.478;23.756;2022-09-09T11:47:00;4.93;;;3.20;;
15194;SDS011;7698;42.478;23.756;2022-09-09T11:49:27;5.07;;;3.42;;
15194;SDS011;7698;42.478;23.756;2022-09-09T11:51:55;4.90;;;3.58;;
15194;SDS011;7698;42.478;23.756;2022-09-09T11:54:28;3.95;;;3.55;;
15194;SDS011;7698;42.478;23.756;2022-09-09T11:56:55;3.88;;;3.58;;
15194;SDS011;7698;42.478;23.756;2022-09-09T11:59:24;4.97;;;3.42;;
15194;SDS011;7698;42.478;23.756;2022-09-09T12:01:54;3.72;;;3.20;;
15194;SDS011;7698;42.478;23.756;2022-09-09T12:04:29;3.60;;;3.30;;
15194;SDS011;7698;42.478;23.756;2022-09-09T12:06:58;4.13;;;3.67;;
15194;SDS011;7698;42.478;23.756;2022-09-09T12:09:27;3.80;;;3.28;;
15194;SDS011;7698;42.478;23.756;2022-09-09T12:14:53;3.58;;;3.33;;
15194;SDS011;7698;42.478;23.756;2022-09-09T12:17:21;4.15;;;3.60;;
15194;SDS011;7698;42.478;23.756;2022-09-09T12:19:48;4.90;;;3.40;;
15194;SDS011;7698;42.478;23.756;2022-09-09T12:22:31;4.18;;;3.03;;
15194;SDS011;7698;42.478;23.756;2022-09-09T12:25:01;3.47;;;3.17;;
15194;SDS011;7698;42.478;23.756;2022-09-09T12:27:31;4.40;;;3.80;;
15194;SDS011;7698;42.478;23.756;2022-09-09T12:30:03;4.38;;;3.97;;
15194;SDS011;7698;42.478;23.756;2022-09-09T12:32:30;3.47;;;3.20;;
15194;SDS011;7698;42.478;23.756;2022-09-09T12:34:57;5.25;;;4.03;;
15194;SDS011;7698;42.478;23.756;2022-09-09T12:37:27;4.53;;;3.70;;
15194;SDS011;7698;42.478;23.756;2022-09-09T12:39:55;4.00;;;3.70;;
15194;SDS011;7698;42.478;23.756;2022-09-09T12:42:22;5.63;;;3.97;;
15194;SDS011;7698;42.478;23.756;2022-09-09T12:44:53;4.68;;;3.92;;
15194;SDS011;7698;42.478;23.756;2022-09-09T12:47:22;3.88;;;3.55;;
15194;SDS011;7698;42.478;23.756;2022-09-09T12:49:50;3.85;;;3.45;;
15194;SDS011;7698;42.478;23.756;2022-09-09T12:52:18;7.90;;;3.70;;
15194;SDS011;7698;42.478;23.756;2022-09-09T12:54:47;6.18;;;3.90;;
15194;SDS011;7698;42.478;23.756;2022-09-09T12:57:16;7.97;;;3.97;;
15194;SDS011;7698;42.478;23.756;2022-09-09T12:59:43;5.80;;;3.45;;
15194;SDS011;7698;42.478;23.756;2022-09-09T13:02:14;4.88;;;4.10;;
15194;SDS011;7698;42.478;23.756;2022-09-09T13:04:44;4.57;;;3.90;;
15194;SDS011;7698;42.478;23.756;2022-09-09T13:07:12;4.07;;;3.67;;
15194;SDS011;7698;42.478;23.756;2022-09-09T13:09:41;3.88;;;3.58;;
15194;SDS011;7698;42.478;23.756;2022-09-09T13:12:10;4.05;;;3.63;;
15194;SDS011;7698;42.478;23.756;2022-09-09T13:14:39;4.10;;;3.80;;
15194;SDS011;7698;42.478;23.756;2022-09-09T13:17:17;4.07;;;3.45;;
15194;SDS011;7698;42.478;23.756;2022-09-09T13:19:45;4.72;;;4.18;;
15194;SDS011;7698;42.478;23.756;2022-09-09T13:22:12;3.90;;;3.60;;
15194;SDS011;7698;42.478;23.756;2022-09-09T13:24:39;4.78;;;3.60;;
15194;SDS011;7698;42.478;23.756;2022-09-09T13:27:19;4.38;;;3.75;;
15194;SDS011;7698;42.478;23.756;2022-09-09T13:29:51;4.60;;;4.20;;
15194;SDS011;7698;42.478;23.756;2022-09-09T13:32:20;6.40;;;3.63;;
15194;SDS011;7698;42.478;23.756;2022-09-09T13:34:51;4.25;;;3.85;;
15194;SDS011;7698;42.478;23.756;2022-09-09T13:37:20;4.85;;;3.85;;
15194;SDS011;7698;42.478;23.756;2022-09-09T13:39:51;5.35;;;3.83;;
15194;SDS011;7698;42.478;23.756;2022-09-09T13:42:21;4.05;;;3.75;;
15194;SDS011;7698;42.478;23.756;2022-09-09T13:44:50;6.07;;;3.50;;
15194;SDS011;7698;42.478;23.756;2022-09-09T13:47:17;4.43;;;4.03;;
15194;SDS011;7698;42.478;23.756;2022-09-09T13:49:45;6.60;;;3.53;;
15194;SDS011;7698;42.478;23.756;2022-09-09T13:52:14;5.63;;;4.00;;
15194;SDS011;7698;42.478;23.756;2022-09-09T13:54:41;4.88;;;3.95;;
15194;SDS011;7698;42.478;23.756;2022-09-09T13:57:13;6.30;;;4.07;;
15194;SDS011;7698;42.478;23.756;2022-09-09T13:59:41;3.75;;;3.40;;
15194;SDS011;7698;42.478;23.756;2022-09-09T14:02:07;3.25;;;3.05;;
15194;SDS011;7698;42.478;23.756;2022-09-09T14:04:34;3.85;;;3.50;;
15194;SDS011;7698;42.478;23.756;2022-09-09T14:07:01;3.33;;;3.03;;
15194;SDS011;7698;42.478;23.756;2022-09-09T14:09:29;7.90;;;3.92;;
15194;SDS011;7698;42.478;23.756;2022-09-09T14:11:56;5.80;;;3.50;;
15194;SDS011;7698;42.478;23.756;2022-09-09T14:14:22;3.92;;;3.63;;
15194;SDS011;7698;42.478;23.756;2022-09-09T14:16:50;4.43;;;4.03;;
15194;SDS011;7698;42.478;23.756;2022-09-09T14:19:16;5.10;;;3.78;;
15194;SDS011;7698;42.478;23.756;2022-09-09T14:21:43;4.20;;;3.90;;
15194;SDS011;7698;42.478;23.756;2022-09-09T14:24:09;4.75;;;4.30;;
15194;SDS011;7698;42.478;23.756;2022-09-09T14:26:38;3.75;;;3.50;;
15194;SDS011;7698;42.478;23.756;2022-09-09T14:29:05;4.53;;;4.15;;
15194;SDS011;7698;42.478;23.756;2022-09-09T14:31:32;4.10;;;3.80;;
15194;SDS011;7698;42.478;23.756;2022-09-09T14:33:59;4.63;;;3.75;;
15194;SDS011;7698;42.478;23.756;2022-09-09T14:36:25;4.07;;;3.72;;
15194;SDS011;7698;42.478;23.756;2022-09-09T14:38:52;5.50;;;4.03;;
15194;SDS011;7698;42.478;23.756;2022-09-09T14:41:19;4.93;;;3.95;;
15194;SDS011;7698;42.478;23.756;2022-09-09T14:43:49;4.22;;;3.78;;
15194;SDS011;7698;42.478;23.756;2022-09-09T14:46:17;4.35;;;3.95;;
15194;SDS011;7698;42.478;23.756;2022-09-09T14:48:44;5.38;;;4.00;;